METAR v bližini

 

LJLJ - Ljubljana/Brnik, Slovenia
Oddaljenost od postaje: W 41km
Podatki zajeti: 23/08/2019 02:00
Pretežno oblačno
Pretežno oblačno
 Veter iz smeri calm
Veter: Calm
Temperatura: 17°C
Rosišče: 16°C
Vlažnost: 94%
Tlak: 1025 hPa
Oblačnost: Pretežno oblačno
Vidljivost: 10 km
Podrobnosti o oblakih: Rahlo oblačno 1006 m
Pretežno oblačno 1219 m
Pretežno oblačno 4572 m
2019/08/23 00:00 LJLJ 230000Z 00000KT 9999 FEW033TCU BKN040 BKN150 17/16 Q1025 TEMPO SHRA
LJMB - Maribor, Slovenia
Oddaljenost od postaje: NE 63km
Podatki zajeti: 23/08/2019 02:00
Nevihte v okolici, Oblačno
Nevihte v okolici, Oblačno
 Veter iz smeri SSW
Veter: SSW 6 km/h
Temperatura: 19°C
Rosišče: 15°C
Vlažnost: 78%
Tlak: 1025 hPa
Stanje: Nevihte v okolici
Oblačnost: Oblačno
Vidljivost: 10 km
Podrobnosti o oblakih: Delno oblačno 1067 m
Rahlo oblačno 1280 m
Oblačno 2743 m
2019/08/23 00:00 LJMB 230000Z 20003KT 140V240 9999 VCTS SCT035 FEW042CB OVC090 19/15 Q1025
 
LJPZ - Portoroz, Slovenia
Oddaljenost od postaje: SW 130km
Podatki zajeti: 23/08/2019 02:00
Delno oblačno
Delno oblačno
 Veter iz smeri spremenljiv
Veter: spremenljiv 6 km/h
Temperatura: 24°C
Rosišče: 16°C
Vlažnost: 61%
Tlak: 1019 hPa
Oblačnost: Delno oblačno
Vidljivost: 10 km
2019/08/23 00:00 LJPZ 230000Z AUTO VRB03KT 9999 NSC 24/16 Q1019
LJCE - Cerklje, Slovenia
Oddaljenost od postaje: ESE 49km
Podatki zajeti: 23/08/2019 02:00
Oblačno
Oblačno
 Veter iz smeri spremenljiv
Veter: spremenljiv 2 km/h
Temperatura: 19°C
Rosišče: 18°C
Vlažnost: 94%
Tlak: 1024 hPa
Oblačnost: Oblačno
Vidljivost: 10 km
Podrobnosti o oblakih: Oblačno 1189 m
2019/08/23 00:00 LJCE 230000Z AUTO VRB01KT 9999 OVC039/// 19/18 Q1024
 
LDZA - Zagreb/Pleso, Croatia
Oddaljenost od postaje: ESE 96km
Podatki zajeti: 23/08/2019 02:00
Oblačno
Oblačno
 Veter iz smeri calm
Veter: Calm
Temperatura: 20°C
Rosišče: 17°C
Vlažnost: 83%
Tlak: 1023 hPa
Oblačnost: Oblačno
Vidljivost: 10 km
Podrobnosti o oblakih: Oblačno 1463 m
2019/08/23 00:00 LDZA 230000Z 00000KT 9999 OVC048 20/17 Q1023 NOSIG
LDRI - Rijeka/Omisalj, Croatia
Oddaljenost od postaje: SSW 109km
Podatki zajeti: 23/08/2019 02:00
Delno oblačno
Delno oblačno
 Veter iz smeri NE
Veter: NE 15 km/h
Temperatura: 24°C
Rosišče: 15°C
Vlažnost: 57%
Tlak: 1020 hPa
Oblačnost: Delno oblačno
Vidljivost: 10 km
Podrobnosti o oblakih: Delno oblačno 1524 m
2019/08/23 00:00 LDRI 230000Z 04008KT 010V070 9999 SCT050 24/15 Q1020
 
LDPL - Pula, Croatia
Oddaljenost od postaje: SSW 164km
Podatki zajeti: 23/08/2019 02:00
Jasno
Jasno
 Veter iz smeri NE
Veter: NE 13 km/h
Temperatura: 22°C
Rosišče: 17°C
Vlažnost: 73%
Tlak: 1019 hPa
Stanje: Jasno
Vidljivost: večja od 10 km
2019/08/23 00:00 LDPL 230000Z 04007KT CAVOK 22/17 Q1019
LOWK - Klagenfurt(Civ/M, Austria
Oddaljenost od postaje: NW 76km
Podatki zajeti: 23/08/2019 01:50
Pretežno oblačno
Pretežno oblačno
 Veter iz smeri SE
Veter: SE 4 km/h
Temperatura: 19°C
Rosišče: 15°C
Vlažnost: 78%
Tlak: 1026 hPa
Oblačnost: Pretežno oblačno
Vidljivost: 10 km
Podrobnosti o oblakih: Rahlo oblačno 1219 m
Delno oblačno 1280 m
Pretežno oblačno 1341 m
2019/08/22 23:50 LOWK 222350Z AUTO 14002KT 9999 FEW040 SCT042 BKN044 19/15 Q1026
 
LOWG - Graz (mil/Civ), Austria
Oddaljenost od postaje: NNE 100km
Podatki zajeti: 23/08/2019 01:50
Nevihte
Nevihte
 Veter iz smeri spremenljiv
Veter: spremenljiv 4 km/h
Oblačnost: Nevihte
Vidljivost: 10 km
2019/08/22 23:50 LOWG 222350Z AUTO VRB02KT 9999 //////CB FEW048 BKN050 19/15 Q1025
LOAN - Wr.neustadt East, Austria
Oddaljenost od postaje: NNE 212km
Podatki zajeti: 22/08/2019 20:00
Ni posodobljen
Pretežno oblačno
Pretežno oblačno
 Veter iz smeri spremenljiv
Veter: spremenljiv 4 km/h
Oblačnost: Pretežno oblačno
Podrobnosti o oblakih: Rahlo oblačno 1219 m
Delno oblačno 2743 m
Pretežno oblačno 9144 m
2019/08/22 18:00 LOAN 221800Z VRB02KT 25KM FEW040CU SCT090AC BKN300CI
 
LIPQ - Ronchi Legionari, Italy
Oddaljenost od postaje: SW 35km
Podatki zajeti: 23/08/2019 01:50
Pretežno oblačno
Pretežno oblačno
 Veter iz smeri NNW
Veter: NNW 7 km/h
Temperatura: 21°C
Rosišče: 17°C
Vlažnost: 78%
Tlak: 1020 hPa
Oblačnost: Pretežno oblačno
Vidljivost: 10 km
Podrobnosti o oblakih: Pretežno oblačno 3962 m
Pretežno oblačno 5791 m
2019/08/22 23:50 LIPQ 222350Z AUTO 33004KT 9999 BKN130/// BKN190/// 21/17 Q1020
LIVT - Trieste, Italy
Oddaljenost od postaje: WSW 109km
Podatki zajeti: 23/08/2019 01:55
Rahlo oblačno
Rahlo oblačno
 Veter iz smeri NE
Veter: NE 30 km/h, Sunek vetra: 61 km/h
Temperatura: 24°C
Rosišče: 18°C
Vlažnost: 69%
Tlak: 1019 hPa
Oblačnost: Rahlo oblačno
Vidljivost: 10 km
Podrobnosti o oblakih: Rahlo oblačno 1219 m
2019/08/22 23:55 LIVT 222355Z 04016G33KT 9999 FEW040 24/18 Q1019 RMK BKN SCT120 QUK / QUL / VIS MAR 20 KM VIS MIN 9999
 
LIVO - Tarvisio, Italy
Oddaljenost od postaje: NNW 49km
Podatki zajeti: 22/08/2019 19:55
Ni posodobljen
Delno oblačno
Delno oblačno
 Veter iz smeri calm
Veter: Calm
Temperatura: 18°C
Rosišče: 15°C
Vlažnost: 83%
Tlak: 1024 hPa
Oblačnost: Delno oblačno
Vidljivost: 10 km
Podrobnosti o oblakih: Delno oblačno 975 m
2019/08/22 17:55 LIVO 221755Z 00000KT 9999 SCT032 18/15 Q1024 RMK BKN SCT070 VIS MIN 9999
LIPZ - Venezia/Tessera, Italy
Oddaljenost od postaje: WSW 217km
Podatki zajeti: 23/08/2019 01:50
Rahlo oblačno
Rahlo oblačno
 Veter iz smeri E
Veter: E 6 km/h
Temperatura: 23°C
Rosišče: 19°C
Vlažnost: 78%
Tlak: 1021 hPa
Oblačnost: Rahlo oblačno
Vidljivost: 10 km
Podrobnosti o oblakih: Rahlo oblačno 1067 m
2019/08/22 23:50 LIPZ 222350Z 09003KT 050V120 9999 FEW035 23/19 Q1021 TEMPO TSRA
 
LHSM - Balaton, Hungary
Oddaljenost od postaje: ENE 177km
Podatki zajeti: 23/08/2019 01:45
Jasno
Jasno
 Veter iz smeri NNE
Veter: NNE 11 km/h
Temperatura: 21°C
Rosišče: 16°C
Vlažnost: 73%
Tlak: 1024 hPa
Stanje: Jasno
Vidljivost: večja od 10 km
2019/08/22 23:45 LHSM 222345Z AUTO 02006KT 350V050 CAVOK 21/16 Q1024